<?xml version="1.0" encoding="UTF-8" standalone="no" ?>
<gpx xmlns="http://www.topografix.com/GPX/1/1" xmlns:xsi="http://www.w3.org/2001/XMLSchema-instance" xsi:schemaLocation="http://www.topografix.com/GPX/1/1 http://www.topografix.com/GPX/1/1/gpx.xsd" version="1.1" creator="VisuGPX - https://www.visugpx.com">
  <metadata>
    <name>boucle montagnac la crempse 10km</name>
  </metadata>
  <trk>
    <name><![CDATA[boucle montagnac la crempse 10km_1]]></name>
    <trkseg>
      <trkpt lat="44.98346" lon="0.53946">
        <ele>157.79</ele>
        <time>2019-09-15T07:40:51Z</time>
      </trkpt>
      <trkpt lat="44.98344" lon="0.5394">
        <ele>157.79</ele>
        <time>2019-09-15T07:41:12Z</time>
      </trkpt>
      <trkpt lat="44.98344" lon="0.53939">
        <ele>157.79</ele>
        <time>2019-09-15T07:41:22Z</time>
      </trkpt>
      <trkpt lat="44.98337" lon="0.5393">
        <ele>157.79</ele>
        <time>2019-09-15T07:41:29Z</time>
      </trkpt>
      <trkpt lat="44.98322" lon="0.53903">
        <ele>159.24</ele>
        <time>2019-09-15T07:41:50Z</time>
      </trkpt>
      <trkpt lat="44.98298" lon="0.53869">
        <ele>159.24</ele>
        <time>2019-09-15T07:42:14Z</time>
      </trkpt>
      <trkpt lat="44.98264" lon="0.53852">
        <ele>159.24</ele>
        <time>2019-09-15T07:42:38Z</time>
      </trkpt>
      <trkpt lat="44.98231" lon="0.53837">
        <ele>159.72</ele>
        <time>2019-09-15T07:43:01Z</time>
      </trkpt>
      <trkpt lat="44.982" lon="0.53827">
        <ele>159.72</ele>
        <time>2019-09-15T07:43:23Z</time>
      </trkpt>
      <trkpt lat="44.98168" lon="0.53817">
        <ele>160.68</ele>
        <time>2019-09-15T07:43:45Z</time>
      </trkpt>
      <trkpt lat="44.9814" lon="0.53813">
        <ele>161.16</ele>
        <time>2019-09-15T07:44:03Z</time>
      </trkpt>
      <trkpt lat="44.98113" lon="0.53787">
        <ele>162.6</ele>
        <time>2019-09-15T07:44:25Z</time>
      </trkpt>
      <trkpt lat="44.98084" lon="0.53763">
        <ele>164.52</ele>
        <time>2019-09-15T07:44:46Z</time>
      </trkpt>
      <trkpt lat="44.98059" lon="0.53745">
        <ele>165</ele>
        <time>2019-09-15T07:45:05Z</time>
      </trkpt>
      <trkpt lat="44.98027" lon="0.53727">
        <ele>165.96</ele>
        <time>2019-09-15T07:45:27Z</time>
      </trkpt>
      <trkpt lat="44.97993" lon="0.53718">
        <ele>167.41</ele>
        <time>2019-09-15T07:45:49Z</time>
      </trkpt>
      <trkpt lat="44.97966" lon="0.53703">
        <ele>170.29</ele>
        <time>2019-09-15T07:46:10Z</time>
      </trkpt>
      <trkpt lat="44.97973" lon="0.53685">
        <ele>171.73</ele>
        <time>2019-09-15T07:46:22Z</time>
      </trkpt>
      <trkpt lat="44.97989" lon="0.53655">
        <ele>173.66</ele>
        <time>2019-09-15T07:46:42Z</time>
      </trkpt>
      <trkpt lat="44.9799" lon="0.53651">
        <ele>173.66</ele>
        <time>2019-09-15T07:46:45Z</time>
      </trkpt>
      <trkpt lat="44.98003" lon="0.53612">
        <ele>173.66</ele>
        <time>2019-09-15T07:47:07Z</time>
      </trkpt>
      <trkpt lat="44.98006" lon="0.5358">
        <ele>171.25</ele>
        <time>2019-09-15T07:47:25Z</time>
      </trkpt>
      <trkpt lat="44.98006" lon="0.53574">
        <ele>170.77</ele>
        <time>2019-09-15T07:47:28Z</time>
      </trkpt>
      <trkpt lat="44.98004" lon="0.53534">
        <ele>167.89</ele>
        <time>2019-09-15T07:47:48Z</time>
      </trkpt>
      <trkpt lat="44.98004" lon="0.53506">
        <ele>164.52</ele>
        <time>2019-09-15T07:48:02Z</time>
      </trkpt>
      <trkpt lat="44.98012" lon="0.53465">
        <ele>161.16</ele>
        <time>2019-09-15T07:48:22Z</time>
      </trkpt>
      <trkpt lat="44.98013" lon="0.53458">
        <ele>161.16</ele>
        <time>2019-09-15T07:48:25Z</time>
      </trkpt>
      <trkpt lat="44.98029" lon="0.53423">
        <ele>158.27</ele>
        <time>2019-09-15T07:48:45Z</time>
      </trkpt>
      <trkpt lat="44.9803" lon="0.53413">
        <ele>157.31</ele>
        <time>2019-09-15T07:48:53Z</time>
      </trkpt>
      <trkpt lat="44.98032" lon="0.53388">
        <ele>153.47</ele>
        <time>2019-09-15T07:49:09Z</time>
      </trkpt>
      <trkpt lat="44.98032" lon="0.53364">
        <ele>150.1</ele>
        <time>2019-09-15T07:49:22Z</time>
      </trkpt>
      <trkpt lat="44.98032" lon="0.53363">
        <ele>150.1</ele>
        <time>2019-09-15T07:49:23Z</time>
      </trkpt>
      <trkpt lat="44.98025" lon="0.53323">
        <ele>147.7</ele>
        <time>2019-09-15T07:49:45Z</time>
      </trkpt>
      <trkpt lat="44.98025" lon="0.53309">
        <ele>148.66</ele>
        <time>2019-09-15T07:49:51Z</time>
      </trkpt>
      <trkpt lat="44.98039" lon="0.53274">
        <ele>149.14</ele>
        <time>2019-09-15T07:50:09Z</time>
      </trkpt>
      <trkpt lat="44.98049" lon="0.53255">
        <ele>147.7</ele>
        <time>2019-09-15T07:50:20Z</time>
      </trkpt>
      <trkpt lat="44.98057" lon="0.53208">
        <ele>146.26</ele>
        <time>2019-09-15T07:50:43Z</time>
      </trkpt>
      <trkpt lat="44.98037" lon="0.53171">
        <ele>143.85</ele>
        <time>2019-09-15T07:51:06Z</time>
      </trkpt>
      <trkpt lat="44.98025" lon="0.53131">
        <ele>143.37</ele>
        <time>2019-09-15T07:51:25Z</time>
      </trkpt>
      <trkpt lat="44.98015" lon="0.53083">
        <ele>143.37</ele>
        <time>2019-09-15T07:51:46Z</time>
      </trkpt>
      <trkpt lat="44.98007" lon="0.53051">
        <ele>144.34</ele>
        <time>2019-09-15T07:52:00Z</time>
      </trkpt>
      <trkpt lat="44.98" lon="0.53001">
        <ele>143.37</ele>
        <time>2019-09-15T07:52:23Z</time>
      </trkpt>
      <trkpt lat="44.97995" lon="0.52957">
        <ele>142.41</ele>
        <time>2019-09-15T07:52:43Z</time>
      </trkpt>
      <trkpt lat="44.9798" lon="0.52905">
        <ele>141.93</ele>
        <time>2019-09-15T07:53:09Z</time>
      </trkpt>
      <trkpt lat="44.97976" lon="0.52899">
        <ele>144.34</ele>
        <time>2019-09-15T07:53:13Z</time>
      </trkpt>
      <trkpt lat="44.9795" lon="0.52888">
        <ele>147.7</ele>
        <time>2019-09-15T07:53:34Z</time>
      </trkpt>
      <trkpt lat="44.9794" lon="0.52868">
        <ele>150.58</ele>
        <time>2019-09-15T07:53:48Z</time>
      </trkpt>
      <trkpt lat="44.97945" lon="0.52844">
        <ele>152.51</ele>
        <time>2019-09-15T07:54:01Z</time>
      </trkpt>
      <trkpt lat="44.97968" lon="0.52808">
        <ele>155.39</ele>
        <time>2019-09-15T07:54:25Z</time>
      </trkpt>
      <trkpt lat="44.97979" lon="0.52784">
        <ele>157.79</ele>
        <time>2019-09-15T07:54:40Z</time>
      </trkpt>
      <trkpt lat="44.97984" lon="0.52743">
        <ele>156.83</ele>
        <time>2019-09-15T07:55:00Z</time>
      </trkpt>
      <trkpt lat="44.97985" lon="0.52717">
        <ele>155.39</ele>
        <time>2019-09-15T07:55:15Z</time>
      </trkpt>
      <trkpt lat="44.97976" lon="0.52691">
        <ele>152.99</ele>
        <time>2019-09-15T07:55:33Z</time>
      </trkpt>
      <trkpt lat="44.97965" lon="0.52663">
        <ele>150.1</ele>
        <time>2019-09-15T07:55:49Z</time>
      </trkpt>
      <trkpt lat="44.97954" lon="0.52628">
        <ele>147.22</ele>
        <time>2019-09-15T07:56:07Z</time>
      </trkpt>
      <trkpt lat="44.97958" lon="0.52613">
        <ele>146.26</ele>
        <time>2019-09-15T07:56:14Z</time>
      </trkpt>
      <trkpt lat="44.9798" lon="0.52599">
        <ele>142.89</ele>
        <time>2019-09-15T07:56:30Z</time>
      </trkpt>
      <trkpt lat="44.98003" lon="0.52594">
        <ele>140.97</ele>
        <time>2019-09-15T07:56:50Z</time>
      </trkpt>
      <trkpt lat="44.98021" lon="0.52587">
        <ele>139.05</ele>
        <time>2019-09-15T07:57:05Z</time>
      </trkpt>
      <trkpt lat="44.98046" lon="0.52563">
        <ele>136.64</ele>
        <time>2019-09-15T07:57:23Z</time>
      </trkpt>
      <trkpt lat="44.98062" lon="0.5254">
        <ele>133.28</ele>
        <time>2019-09-15T07:57:37Z</time>
      </trkpt>
      <trkpt lat="44.98062" lon="0.52535">
        <ele>133.28</ele>
        <time>2019-09-15T07:57:39Z</time>
      </trkpt>
      <trkpt lat="44.98057" lon="0.52525">
        <ele>131.84</ele>
        <time>2019-09-15T07:57:44Z</time>
      </trkpt>
      <trkpt lat="44.98033" lon="0.52498">
        <ele>127.99</ele>
        <time>2019-09-15T07:58:03Z</time>
      </trkpt>
      <trkpt lat="44.98004" lon="0.52462">
        <ele>124.63</ele>
        <time>2019-09-15T07:58:29Z</time>
      </trkpt>
      <trkpt lat="44.97978" lon="0.52418">
        <ele>123.19</ele>
        <time>2019-09-15T07:58:54Z</time>
      </trkpt>
      <trkpt lat="44.97971" lon="0.52364">
        <ele>122.71</ele>
        <time>2019-09-15T07:59:17Z</time>
      </trkpt>
      <trkpt lat="44.97964" lon="0.52323">
        <ele>122.71</ele>
        <time>2019-09-15T07:59:40Z</time>
      </trkpt>
      <trkpt lat="44.97961" lon="0.52331">
        <ele>124.15</ele>
        <time>2019-09-15T07:59:44Z</time>
      </trkpt>
      <trkpt lat="44.97949" lon="0.52348">
        <ele>125.11</ele>
        <time>2019-09-15T07:59:56Z</time>
      </trkpt>
      <trkpt lat="44.97915" lon="0.52359">
        <ele>126.07</ele>
        <time>2019-09-15T08:00:20Z</time>
      </trkpt>
      <trkpt lat="44.97886" lon="0.52368">
        <ele>127.03</ele>
        <time>2019-09-15T08:00:40Z</time>
      </trkpt>
      <trkpt lat="44.97856" lon="0.5238">
        <ele>128.47</ele>
        <time>2019-09-15T08:01:01Z</time>
      </trkpt>
      <trkpt lat="44.97826" lon="0.52383">
        <ele>130.88</ele>
        <time>2019-09-15T08:01:23Z</time>
      </trkpt>
      <trkpt lat="44.97795" lon="0.52384">
        <ele>128.95</ele>
        <time>2019-09-15T08:01:42Z</time>
      </trkpt>
      <trkpt lat="44.97775" lon="0.52371">
        <ele>129.43</ele>
        <time>2019-09-15T08:01:56Z</time>
      </trkpt>
      <trkpt lat="44.9777" lon="0.52367">
        <ele>128.47</ele>
        <time>2019-09-15T08:02:00Z</time>
      </trkpt>
      <trkpt lat="44.97739" lon="0.52356">
        <ele>127.51</ele>
        <time>2019-09-15T08:02:20Z</time>
      </trkpt>
      <trkpt lat="44.9771" lon="0.52361">
        <ele>127.51</ele>
        <time>2019-09-15T08:02:40Z</time>
      </trkpt>
      <trkpt lat="44.97707" lon="0.52362">
        <ele>127.51</ele>
        <time>2019-09-15T08:02:42Z</time>
      </trkpt>
      <trkpt lat="44.97705" lon="0.52363">
        <ele>128.95</ele>
        <time>2019-09-15T08:02:44Z</time>
      </trkpt>
      <trkpt lat="44.977" lon="0.52363">
        <ele>128.95</ele>
        <time>2019-09-15T08:02:47Z</time>
      </trkpt>
      <trkpt lat="44.97675" lon="0.5235">
        <ele>131.36</ele>
        <time>2019-09-15T08:03:08Z</time>
      </trkpt>
      <trkpt lat="44.97669" lon="0.52352">
        <ele>131.84</ele>
        <time>2019-09-15T08:03:12Z</time>
      </trkpt>
      <trkpt lat="44.97636" lon="0.52365">
        <ele>131.84</ele>
        <time>2019-09-15T08:03:36Z</time>
      </trkpt>
      <trkpt lat="44.97601" lon="0.52375">
        <ele>132.8</ele>
        <time>2019-09-15T08:03:59Z</time>
      </trkpt>
      <trkpt lat="44.97567" lon="0.52374">
        <ele>133.28</ele>
        <time>2019-09-15T08:04:21Z</time>
      </trkpt>
      <trkpt lat="44.97534" lon="0.52383">
        <ele>131.84</ele>
        <time>2019-09-15T08:04:43Z</time>
      </trkpt>
      <trkpt lat="44.97527" lon="0.52383">
        <ele>133.28</ele>
        <time>2019-09-15T08:04:48Z</time>
      </trkpt>
      <trkpt lat="44.97503" lon="0.52395">
        <ele>134.24</ele>
        <time>2019-09-15T08:05:07Z</time>
      </trkpt>
      <trkpt lat="44.97479" lon="0.52437">
        <ele>134.24</ele>
        <time>2019-09-15T08:05:32Z</time>
      </trkpt>
      <trkpt lat="44.97455" lon="0.52466">
        <ele>135.2</ele>
        <time>2019-09-15T08:05:54Z</time>
      </trkpt>
      <trkpt lat="44.97429" lon="0.525">
        <ele>135.2</ele>
        <time>2019-09-15T08:06:17Z</time>
      </trkpt>
      <trkpt lat="44.97395" lon="0.52532">
        <ele>136.16</ele>
        <time>2019-09-15T08:06:44Z</time>
      </trkpt>
      <trkpt lat="44.97363" lon="0.52555">
        <ele>138.09</ele>
        <time>2019-09-15T08:07:08Z</time>
      </trkpt>
      <trkpt lat="44.97336" lon="0.52572">
        <ele>140.49</ele>
        <time>2019-09-15T08:07:29Z</time>
      </trkpt>
      <trkpt lat="44.97311" lon="0.52589">
        <ele>142.89</ele>
        <time>2019-09-15T08:07:48Z</time>
      </trkpt>
      <trkpt lat="44.97288" lon="0.52598">
        <ele>144.82</ele>
        <time>2019-09-15T08:08:07Z</time>
      </trkpt>
      <trkpt lat="44.97262" lon="0.52594">
        <ele>147.22</ele>
        <time>2019-09-15T08:08:28Z</time>
      </trkpt>
      <trkpt lat="44.97234" lon="0.52585">
        <ele>149.62</ele>
        <time>2019-09-15T08:08:51Z</time>
      </trkpt>
      <trkpt lat="44.97202" lon="0.52566">
        <ele>151.06</ele>
        <time>2019-09-15T08:09:15Z</time>
      </trkpt>
      <trkpt lat="44.97197" lon="0.52561">
        <ele>152.51</ele>
        <time>2019-09-15T08:09:19Z</time>
      </trkpt>
      <trkpt lat="44.97176" lon="0.52548">
        <ele>153.95</ele>
        <time>2019-09-15T08:09:36Z</time>
      </trkpt>
      <trkpt lat="44.97145" lon="0.52531">
        <ele>155.39</ele>
        <time>2019-09-15T08:09:58Z</time>
      </trkpt>
      <trkpt lat="44.97117" lon="0.52513">
        <ele>155.87</ele>
        <time>2019-09-15T08:10:20Z</time>
      </trkpt>
      <trkpt lat="44.97092" lon="0.52484">
        <ele>155.87</ele>
        <time>2019-09-15T08:10:42Z</time>
      </trkpt>
      <trkpt lat="44.9709" lon="0.52482">
        <ele>157.31</ele>
        <time>2019-09-15T08:10:44Z</time>
      </trkpt>
      <trkpt lat="44.97067" lon="0.52459">
        <ele>158.75</ele>
        <time>2019-09-15T08:11:06Z</time>
      </trkpt>
      <trkpt lat="44.97062" lon="0.52452">
        <ele>159.72</ele>
        <time>2019-09-15T08:11:24Z</time>
      </trkpt>
      <trkpt lat="44.97061" lon="0.52454">
        <ele>159.72</ele>
        <time>2019-09-15T08:11:53Z</time>
      </trkpt>
      <trkpt lat="44.9706" lon="0.52454">
        <ele>159.72</ele>
        <time>2019-09-15T08:12:26Z</time>
      </trkpt>
      <trkpt lat="44.9706" lon="0.52453">
        <ele>160.2</ele>
        <time>2019-09-15T08:12:51Z</time>
      </trkpt>
      <trkpt lat="44.97059" lon="0.52452">
        <ele>159.24</ele>
        <time>2019-09-15T08:13:21Z</time>
      </trkpt>
      <trkpt lat="44.97059" lon="0.52451">
        <ele>159.24</ele>
        <time>2019-09-15T08:13:46Z</time>
      </trkpt>
      <trkpt lat="44.97059" lon="0.52453">
        <ele>159.24</ele>
        <time>2019-09-15T08:14:16Z</time>
      </trkpt>
      <trkpt lat="44.97055" lon="0.52454">
        <ele>160.68</ele>
        <time>2019-09-15T08:14:34Z</time>
      </trkpt>
      <trkpt lat="44.97054" lon="0.52455">
        <ele>160.68</ele>
        <time>2019-09-15T08:14:35Z</time>
      </trkpt>
      <trkpt lat="44.97054" lon="0.52456">
        <ele>160.68</ele>
        <time>2019-09-15T08:14:36Z</time>
      </trkpt>
      <trkpt lat="44.97052" lon="0.52462">
        <ele>161.16</ele>
        <time>2019-09-15T08:14:40Z</time>
      </trkpt>
      <trkpt lat="44.97037" lon="0.52503">
        <ele>163.08</ele>
        <time>2019-09-15T08:15:03Z</time>
      </trkpt>
      <trkpt lat="44.97028" lon="0.52517">
        <ele>163.08</ele>
        <time>2019-09-15T08:15:13Z</time>
      </trkpt>
      <trkpt lat="44.9702" lon="0.52518">
        <ele>163.56</ele>
        <time>2019-09-15T08:15:18Z</time>
      </trkpt>
      <trkpt lat="44.96986" lon="0.52499">
        <ele>164.52</ele>
        <time>2019-09-15T08:15:42Z</time>
      </trkpt>
      <trkpt lat="44.96963" lon="0.52469">
        <ele>166.45</ele>
        <time>2019-09-15T08:16:03Z</time>
      </trkpt>
      <trkpt lat="44.96939" lon="0.52439">
        <ele>167.41</ele>
        <time>2019-09-15T08:16:25Z</time>
      </trkpt>
      <trkpt lat="44.96923" lon="0.52421">
        <ele>168.37</ele>
        <time>2019-09-15T08:16:43Z</time>
      </trkpt>
      <trkpt lat="44.96895" lon="0.52399">
        <ele>169.81</ele>
        <time>2019-09-15T08:17:04Z</time>
      </trkpt>
      <trkpt lat="44.96866" lon="0.52372">
        <ele>169.81</ele>
        <time>2019-09-15T08:17:28Z</time>
      </trkpt>
      <trkpt lat="44.96842" lon="0.52344">
        <ele>170.77</ele>
        <time>2019-09-15T08:17:48Z</time>
      </trkpt>
      <trkpt lat="44.96834" lon="0.52306">
        <ele>171.73</ele>
        <time>2019-09-15T08:18:07Z</time>
      </trkpt>
      <trkpt lat="44.96839" lon="0.52294">
        <ele>171.73</ele>
        <time>2019-09-15T08:18:15Z</time>
      </trkpt>
      <trkpt lat="44.96842" lon="0.52287">
        <ele>171.73</ele>
        <time>2019-09-15T08:18:19Z</time>
      </trkpt>
      <trkpt lat="44.96841" lon="0.52273">
        <ele>171.73</ele>
        <time>2019-09-15T08:18:28Z</time>
      </trkpt>
      <trkpt lat="44.96814" lon="0.5225">
        <ele>174.14</ele>
        <time>2019-09-15T08:18:53Z</time>
      </trkpt>
      <trkpt lat="44.96787" lon="0.52232">
        <ele>175.58</ele>
        <time>2019-09-15T08:19:13Z</time>
      </trkpt>
      <trkpt lat="44.96756" lon="0.52216">
        <ele>177.02</ele>
        <time>2019-09-15T08:19:35Z</time>
      </trkpt>
      <trkpt lat="44.96729" lon="0.52204">
        <ele>177.98</ele>
        <time>2019-09-15T08:19:54Z</time>
      </trkpt>
      <trkpt lat="44.96709" lon="0.52194">
        <ele>178.46</ele>
        <time>2019-09-15T08:20:11Z</time>
      </trkpt>
      <trkpt lat="44.96683" lon="0.52185">
        <ele>177.02</ele>
        <time>2019-09-15T08:20:28Z</time>
      </trkpt>
      <trkpt lat="44.9668" lon="0.52198">
        <ele>178.46</ele>
        <time>2019-09-15T08:20:35Z</time>
      </trkpt>
      <trkpt lat="44.96683" lon="0.52215">
        <ele>177.02</ele>
        <time>2019-09-15T08:20:43Z</time>
      </trkpt>
      <trkpt lat="44.9668" lon="0.52262">
        <ele>173.66</ele>
        <time>2019-09-15T08:21:04Z</time>
      </trkpt>
      <trkpt lat="44.96677" lon="0.52318">
        <ele>171.73</ele>
        <time>2019-09-15T08:21:28Z</time>
      </trkpt>
      <trkpt lat="44.96676" lon="0.52365">
        <ele>171.25</ele>
        <time>2019-09-15T08:21:49Z</time>
      </trkpt>
      <trkpt lat="44.96676" lon="0.52422">
        <ele>170.29</ele>
        <time>2019-09-15T08:22:15Z</time>
      </trkpt>
      <trkpt lat="44.96674" lon="0.52463">
        <ele>169.33</ele>
        <time>2019-09-15T08:22:33Z</time>
      </trkpt>
      <trkpt lat="44.96673" lon="0.52514">
        <ele>168.37</ele>
        <time>2019-09-15T08:22:56Z</time>
      </trkpt>
      <trkpt lat="44.9667" lon="0.52561">
        <ele>168.37</ele>
        <time>2019-09-15T08:23:18Z</time>
      </trkpt>
      <trkpt lat="44.96672" lon="0.52612">
        <ele>168.37</ele>
        <time>2019-09-15T08:23:40Z</time>
      </trkpt>
      <trkpt lat="44.96673" lon="0.52655">
        <ele>169.33</ele>
        <time>2019-09-15T08:24:00Z</time>
      </trkpt>
      <trkpt lat="44.96672" lon="0.52657">
        <ele>169.33</ele>
        <time>2019-09-15T08:24:01Z</time>
      </trkpt>
      <trkpt lat="44.9667" lon="0.52695">
        <ele>170.29</ele>
        <time>2019-09-15T08:24:19Z</time>
      </trkpt>
      <trkpt lat="44.96666" lon="0.52732">
        <ele>172.21</ele>
        <time>2019-09-15T08:24:37Z</time>
      </trkpt>
      <trkpt lat="44.96655" lon="0.52772">
        <ele>174.14</ele>
        <time>2019-09-15T08:24:58Z</time>
      </trkpt>
      <trkpt lat="44.96647" lon="0.52807">
        <ele>172.69</ele>
        <time>2019-09-15T08:25:14Z</time>
      </trkpt>
      <trkpt lat="44.96635" lon="0.52862">
        <ele>170.77</ele>
        <time>2019-09-15T08:25:39Z</time>
      </trkpt>
      <trkpt lat="44.96619" lon="0.52911">
        <ele>169.81</ele>
        <time>2019-09-15T08:26:01Z</time>
      </trkpt>
      <trkpt lat="44.96608" lon="0.52959">
        <ele>169.33</ele>
        <time>2019-09-15T08:26:23Z</time>
      </trkpt>
      <trkpt lat="44.96597" lon="0.53007">
        <ele>169.33</ele>
        <time>2019-09-15T08:26:45Z</time>
      </trkpt>
      <trkpt lat="44.96595" lon="0.53021">
        <ele>170.29</ele>
        <time>2019-09-15T08:26:51Z</time>
      </trkpt>
      <trkpt lat="44.96594" lon="0.53028">
        <ele>171.25</ele>
        <time>2019-09-15T08:26:55Z</time>
      </trkpt>
      <trkpt lat="44.96599" lon="0.53064">
        <ele>172.69</ele>
        <time>2019-09-15T08:27:16Z</time>
      </trkpt>
      <trkpt lat="44.96602" lon="0.53068">
        <ele>172.69</ele>
        <time>2019-09-15T08:27:40Z</time>
      </trkpt>
      <trkpt lat="44.96602" lon="0.53066">
        <ele>173.17</ele>
        <time>2019-09-15T08:27:59Z</time>
      </trkpt>
      <trkpt lat="44.966" lon="0.53062">
        <ele>173.17</ele>
        <time>2019-09-15T08:28:21Z</time>
      </trkpt>
      <trkpt lat="44.96603" lon="0.53064">
        <ele>173.17</ele>
        <time>2019-09-15T08:28:39Z</time>
      </trkpt>
      <trkpt lat="44.96599" lon="0.53066">
        <ele>173.17</ele>
        <time>2019-09-15T08:29:07Z</time>
      </trkpt>
      <trkpt lat="44.966" lon="0.53066">
        <ele>172.21</ele>
        <time>2019-09-15T08:29:34Z</time>
      </trkpt>
      <trkpt lat="44.96602" lon="0.53065">
        <ele>172.21</ele>
        <time>2019-09-15T08:30:00Z</time>
      </trkpt>
      <trkpt lat="44.96603" lon="0.53065">
        <ele>172.21</ele>
        <time>2019-09-15T08:30:01Z</time>
      </trkpt>
      <trkpt lat="44.96629" lon="0.53081">
        <ele>173.17</ele>
        <time>2019-09-15T08:30:21Z</time>
      </trkpt>
      <trkpt lat="44.96656" lon="0.53096">
        <ele>173.66</ele>
        <time>2019-09-15T08:30:41Z</time>
      </trkpt>
      <trkpt lat="44.96685" lon="0.53113">
        <ele>174.14</ele>
        <time>2019-09-15T08:31:02Z</time>
      </trkpt>
      <trkpt lat="44.96714" lon="0.53135">
        <ele>174.62</ele>
        <time>2019-09-15T08:31:24Z</time>
      </trkpt>
      <trkpt lat="44.96742" lon="0.53164">
        <ele>174.62</ele>
        <time>2019-09-15T08:31:47Z</time>
      </trkpt>
      <trkpt lat="44.96756" lon="0.53176">
        <ele>173.17</ele>
        <time>2019-09-15T08:31:56Z</time>
      </trkpt>
      <trkpt lat="44.96785" lon="0.53201">
        <ele>173.17</ele>
        <time>2019-09-15T08:32:17Z</time>
      </trkpt>
      <trkpt lat="44.96819" lon="0.53206">
        <ele>173.17</ele>
        <time>2019-09-15T08:32:37Z</time>
      </trkpt>
      <trkpt lat="44.96827" lon="0.53208">
        <ele>174.14</ele>
        <time>2019-09-15T08:32:42Z</time>
      </trkpt>
      <trkpt lat="44.96863" lon="0.53219">
        <ele>175.58</ele>
        <time>2019-09-15T08:33:07Z</time>
      </trkpt>
      <trkpt lat="44.96895" lon="0.53243">
        <ele>176.06</ele>
        <time>2019-09-15T08:33:30Z</time>
      </trkpt>
      <trkpt lat="44.96902" lon="0.53246">
        <ele>176.06</ele>
        <time>2019-09-15T08:33:35Z</time>
      </trkpt>
      <trkpt lat="44.96935" lon="0.5326">
        <ele>175.1</ele>
        <time>2019-09-15T08:33:58Z</time>
      </trkpt>
      <trkpt lat="44.96964" lon="0.53288">
        <ele>175.1</ele>
        <time>2019-09-15T08:34:21Z</time>
      </trkpt>
      <trkpt lat="44.96996" lon="0.53306">
        <ele>173.17</ele>
        <time>2019-09-15T08:34:43Z</time>
      </trkpt>
      <trkpt lat="44.97033" lon="0.53318">
        <ele>171.25</ele>
        <time>2019-09-15T08:35:08Z</time>
      </trkpt>
      <trkpt lat="44.97066" lon="0.53324">
        <ele>171.25</ele>
        <time>2019-09-15T08:35:28Z</time>
      </trkpt>
      <trkpt lat="44.97071" lon="0.53325">
        <ele>171.25</ele>
        <time>2019-09-15T08:35:32Z</time>
      </trkpt>
      <trkpt lat="44.97105" lon="0.5333">
        <ele>173.17</ele>
        <time>2019-09-15T08:35:54Z</time>
      </trkpt>
      <trkpt lat="44.97121" lon="0.53335">
        <ele>173.17</ele>
        <time>2019-09-15T08:36:04Z</time>
      </trkpt>
      <trkpt lat="44.97144" lon="0.53363">
        <ele>173.66</ele>
        <time>2019-09-15T08:36:24Z</time>
      </trkpt>
      <trkpt lat="44.97169" lon="0.53387">
        <ele>175.1</ele>
        <time>2019-09-15T08:36:45Z</time>
      </trkpt>
      <trkpt lat="44.97199" lon="0.534">
        <ele>175.58</ele>
        <time>2019-09-15T08:37:07Z</time>
      </trkpt>
      <trkpt lat="44.97227" lon="0.53415">
        <ele>177.02</ele>
        <time>2019-09-15T08:37:29Z</time>
      </trkpt>
      <trkpt lat="44.97253" lon="0.53433">
        <ele>179.42</ele>
        <time>2019-09-15T08:37:50Z</time>
      </trkpt>
      <trkpt lat="44.97274" lon="0.53456">
        <ele>181.35</ele>
        <time>2019-09-15T08:38:09Z</time>
      </trkpt>
      <trkpt lat="44.97298" lon="0.53487">
        <ele>183.27</ele>
        <time>2019-09-15T08:38:31Z</time>
      </trkpt>
      <trkpt lat="44.97328" lon="0.53512">
        <ele>181.83</ele>
        <time>2019-09-15T08:38:53Z</time>
      </trkpt>
      <trkpt lat="44.97329" lon="0.53513">
        <ele>181.35</ele>
        <time>2019-09-15T08:38:54Z</time>
      </trkpt>
      <trkpt lat="44.97327" lon="0.5352">
        <ele>181.83</ele>
        <time>2019-09-15T08:38:58Z</time>
      </trkpt>
      <trkpt lat="44.97306" lon="0.53534">
        <ele>181.35</ele>
        <time>2019-09-15T08:39:14Z</time>
      </trkpt>
      <trkpt lat="44.97303" lon="0.53536">
        <ele>181.35</ele>
        <time>2019-09-15T08:39:17Z</time>
      </trkpt>
      <trkpt lat="44.97276" lon="0.53553">
        <ele>179.9</ele>
        <time>2019-09-15T08:39:39Z</time>
      </trkpt>
      <trkpt lat="44.97246" lon="0.53571">
        <ele>179.42</ele>
        <time>2019-09-15T08:40:01Z</time>
      </trkpt>
      <trkpt lat="44.97209" lon="0.53586">
        <ele>178.94</ele>
        <time>2019-09-15T08:40:25Z</time>
      </trkpt>
      <trkpt lat="44.97185" lon="0.53613">
        <ele>177.02</ele>
        <time>2019-09-15T08:40:48Z</time>
      </trkpt>
      <trkpt lat="44.97157" lon="0.53632">
        <ele>176.06</ele>
        <time>2019-09-15T08:41:08Z</time>
      </trkpt>
      <trkpt lat="44.97145" lon="0.53649">
        <ele>173.66</ele>
        <time>2019-09-15T08:41:24Z</time>
      </trkpt>
      <trkpt lat="44.97168" lon="0.5366">
        <ele>176.06</ele>
        <time>2019-09-15T08:41:43Z</time>
      </trkpt>
      <trkpt lat="44.97171" lon="0.53663">
        <ele>176.06</ele>
        <time>2019-09-15T08:41:46Z</time>
      </trkpt>
      <trkpt lat="44.97189" lon="0.5368">
        <ele>175.1</ele>
        <time>2019-09-15T08:42:03Z</time>
      </trkpt>
      <trkpt lat="44.9719" lon="0.5369">
        <ele>175.58</ele>
        <time>2019-09-15T08:42:08Z</time>
      </trkpt>
      <trkpt lat="44.97191" lon="0.53693">
        <ele>174.14</ele>
        <time>2019-09-15T08:42:10Z</time>
      </trkpt>
      <trkpt lat="44.97216" lon="0.53705">
        <ele>174.62</ele>
        <time>2019-09-15T08:42:31Z</time>
      </trkpt>
      <trkpt lat="44.97241" lon="0.53721">
        <ele>174.14</ele>
        <time>2019-09-15T08:42:50Z</time>
      </trkpt>
      <trkpt lat="44.97262" lon="0.53754">
        <ele>173.66</ele>
        <time>2019-09-15T08:43:10Z</time>
      </trkpt>
      <trkpt lat="44.97281" lon="0.53785">
        <ele>173.17</ele>
        <time>2019-09-15T08:43:29Z</time>
      </trkpt>
      <trkpt lat="44.97299" lon="0.53817">
        <ele>171.73</ele>
        <time>2019-09-15T08:43:48Z</time>
      </trkpt>
      <trkpt lat="44.97299" lon="0.53819">
        <ele>171.73</ele>
        <time>2019-09-15T08:43:49Z</time>
      </trkpt>
      <trkpt lat="44.97288" lon="0.5386">
        <ele>170.77</ele>
        <time>2019-09-15T08:44:11Z</time>
      </trkpt>
      <trkpt lat="44.97282" lon="0.53902">
        <ele>168.85</ele>
        <time>2019-09-15T08:44:32Z</time>
      </trkpt>
      <trkpt lat="44.97291" lon="0.53925">
        <ele>166.93</ele>
        <time>2019-09-15T08:44:43Z</time>
      </trkpt>
      <trkpt lat="44.9729" lon="0.5394">
        <ele>166.93</ele>
        <time>2019-09-15T08:44:49Z</time>
      </trkpt>
      <trkpt lat="44.97278" lon="0.53978">
        <ele>163.56</ele>
        <time>2019-09-15T08:45:07Z</time>
      </trkpt>
      <trkpt lat="44.97265" lon="0.5402">
        <ele>160.68</ele>
        <time>2019-09-15T08:45:28Z</time>
      </trkpt>
      <trkpt lat="44.9726" lon="0.54049">
        <ele>157.79</ele>
        <time>2019-09-15T08:45:41Z</time>
      </trkpt>
      <trkpt lat="44.97257" lon="0.5408">
        <ele>154.43</ele>
        <time>2019-09-15T08:45:58Z</time>
      </trkpt>
      <trkpt lat="44.97237" lon="0.54099">
        <ele>151.06</ele>
        <time>2019-09-15T08:46:11Z</time>
      </trkpt>
      <trkpt lat="44.97233" lon="0.54105">
        <ele>150.1</ele>
        <time>2019-09-15T08:46:15Z</time>
      </trkpt>
      <trkpt lat="44.97221" lon="0.54135">
        <ele>145.78</ele>
        <time>2019-09-15T08:46:29Z</time>
      </trkpt>
      <trkpt lat="44.97212" lon="0.54167">
        <ele>143.37</ele>
        <time>2019-09-15T08:46:45Z</time>
      </trkpt>
      <trkpt lat="44.97223" lon="0.54176">
        <ele>143.37</ele>
        <time>2019-09-15T08:46:52Z</time>
      </trkpt>
      <trkpt lat="44.97249" lon="0.54224">
        <ele>142.41</ele>
        <time>2019-09-15T08:47:19Z</time>
      </trkpt>
      <trkpt lat="44.97261" lon="0.54241">
        <ele>143.85</ele>
        <time>2019-09-15T08:47:30Z</time>
      </trkpt>
      <trkpt lat="44.97286" lon="0.54275">
        <ele>143.85</ele>
        <time>2019-09-15T08:47:53Z</time>
      </trkpt>
      <trkpt lat="44.97295" lon="0.54286">
        <ele>143.85</ele>
        <time>2019-09-15T08:48:01Z</time>
      </trkpt>
      <trkpt lat="44.97297" lon="0.54288">
        <ele>143.85</ele>
        <time>2019-09-15T08:48:03Z</time>
      </trkpt>
      <trkpt lat="44.97321" lon="0.54308">
        <ele>142.41</ele>
        <time>2019-09-15T08:48:21Z</time>
      </trkpt>
      <trkpt lat="44.97361" lon="0.54334">
        <ele>141.93</ele>
        <time>2019-09-15T08:48:47Z</time>
      </trkpt>
      <trkpt lat="44.97388" lon="0.5436">
        <ele>140.97</ele>
        <time>2019-09-15T08:49:10Z</time>
      </trkpt>
      <trkpt lat="44.97417" lon="0.54386">
        <ele>140.01</ele>
        <time>2019-09-15T08:49:32Z</time>
      </trkpt>
      <trkpt lat="44.97446" lon="0.54415">
        <ele>138.09</ele>
        <time>2019-09-15T08:49:55Z</time>
      </trkpt>
      <trkpt lat="44.9748" lon="0.54446">
        <ele>136.16</ele>
        <time>2019-09-15T08:50:21Z</time>
      </trkpt>
      <trkpt lat="44.97517" lon="0.54468">
        <ele>134.24</ele>
        <time>2019-09-15T08:50:45Z</time>
      </trkpt>
      <trkpt lat="44.97558" lon="0.54491">
        <ele>131.84</ele>
        <time>2019-09-15T08:51:11Z</time>
      </trkpt>
      <trkpt lat="44.97595" lon="0.5451">
        <ele>128.95</ele>
        <time>2019-09-15T08:51:35Z</time>
      </trkpt>
      <trkpt lat="44.97623" lon="0.54538">
        <ele>128.47</ele>
        <time>2019-09-15T08:51:56Z</time>
      </trkpt>
      <trkpt lat="44.97635" lon="0.54578">
        <ele>127.51</ele>
        <time>2019-09-15T08:52:15Z</time>
      </trkpt>
      <trkpt lat="44.9765" lon="0.54616">
        <ele>127.03</ele>
        <time>2019-09-15T08:52:35Z</time>
      </trkpt>
      <trkpt lat="44.97676" lon="0.54662">
        <ele>125.59</ele>
        <time>2019-09-15T08:53:00Z</time>
      </trkpt>
      <trkpt lat="44.97704" lon="0.54675">
        <ele>125.11</ele>
        <time>2019-09-15T08:53:21Z</time>
      </trkpt>
      <trkpt lat="44.97705" lon="0.54667">
        <ele>124.63</ele>
        <time>2019-09-15T08:53:43Z</time>
      </trkpt>
      <trkpt lat="44.97705" lon="0.54667">
        <ele>124.63</ele>
        <time>2019-09-15T08:54:08Z</time>
      </trkpt>
      <trkpt lat="44.97706" lon="0.54666">
        <ele>124.15</ele>
        <time>2019-09-15T08:54:32Z</time>
      </trkpt>
      <trkpt lat="44.97708" lon="0.54672">
        <ele>124.15</ele>
        <time>2019-09-15T08:54:56Z</time>
      </trkpt>
      <trkpt lat="44.97707" lon="0.54667">
        <ele>125.11</ele>
        <time>2019-09-15T08:55:23Z</time>
      </trkpt>
      <trkpt lat="44.97708" lon="0.54666">
        <ele>125.11</ele>
        <time>2019-09-15T08:55:52Z</time>
      </trkpt>
      <trkpt lat="44.9772" lon="0.54662">
        <ele>124.15</ele>
        <time>2019-09-15T08:56:16Z</time>
      </trkpt>
      <trkpt lat="44.97749" lon="0.54645">
        <ele>123.67</ele>
        <time>2019-09-15T08:56:38Z</time>
      </trkpt>
      <trkpt lat="44.97781" lon="0.54628">
        <ele>123.67</ele>
        <time>2019-09-15T08:57:01Z</time>
      </trkpt>
      <trkpt lat="44.97811" lon="0.54627">
        <ele>123.67</ele>
        <time>2019-09-15T08:57:22Z</time>
      </trkpt>
      <trkpt lat="44.97854" lon="0.54637">
        <ele>123.67</ele>
        <time>2019-09-15T08:57:48Z</time>
      </trkpt>
      <trkpt lat="44.9786" lon="0.54639">
        <ele>125.11</ele>
        <time>2019-09-15T08:57:52Z</time>
      </trkpt>
      <trkpt lat="44.97895" lon="0.54641">
        <ele>126.07</ele>
        <time>2019-09-15T08:58:16Z</time>
      </trkpt>
      <trkpt lat="44.97929" lon="0.5465">
        <ele>127.03</ele>
        <time>2019-09-15T08:58:39Z</time>
      </trkpt>
      <trkpt lat="44.97964" lon="0.54678">
        <ele>126.07</ele>
        <time>2019-09-15T08:59:04Z</time>
      </trkpt>
      <trkpt lat="44.97967" lon="0.54698">
        <ele>123.19</ele>
        <time>2019-09-15T08:59:14Z</time>
      </trkpt>
      <trkpt lat="44.9797" lon="0.5473">
        <ele>120.3</ele>
        <time>2019-09-15T08:59:32Z</time>
      </trkpt>
      <trkpt lat="44.98006" lon="0.54736">
        <ele>119.82</ele>
        <time>2019-09-15T08:59:54Z</time>
      </trkpt>
      <trkpt lat="44.98032" lon="0.54742">
        <ele>120.78</ele>
        <time>2019-09-15T09:00:12Z</time>
      </trkpt>
      <trkpt lat="44.98037" lon="0.54744">
        <ele>120.78</ele>
        <time>2019-09-15T09:00:15Z</time>
      </trkpt>
      <trkpt lat="44.98042" lon="0.54769">
        <ele>119.82</ele>
        <time>2019-09-15T09:00:28Z</time>
      </trkpt>
      <trkpt lat="44.98032" lon="0.54817">
        <ele>118.86</ele>
        <time>2019-09-15T09:00:50Z</time>
      </trkpt>
      <trkpt lat="44.98023" lon="0.5485">
        <ele>120.3</ele>
        <time>2019-09-15T09:01:06Z</time>
      </trkpt>
      <trkpt lat="44.98042" lon="0.54874">
        <ele>121.74</ele>
        <time>2019-09-15T09:01:23Z</time>
      </trkpt>
      <trkpt lat="44.98054" lon="0.54884">
        <ele>121.26</ele>
        <time>2019-09-15T09:01:33Z</time>
      </trkpt>
      <trkpt lat="44.98067" lon="0.54891">
        <ele>120.78</ele>
        <time>2019-09-15T09:01:52Z</time>
      </trkpt>
      <trkpt lat="44.98099" lon="0.549">
        <ele>119.82</ele>
        <time>2019-09-15T09:02:16Z</time>
      </trkpt>
      <trkpt lat="44.9813" lon="0.54898">
        <ele>120.3</ele>
        <time>2019-09-15T09:02:36Z</time>
      </trkpt>
      <trkpt lat="44.98132" lon="0.54898">
        <ele>120.3</ele>
        <time>2019-09-15T09:02:37Z</time>
      </trkpt>
      <trkpt lat="44.9815" lon="0.54896">
        <ele>119.34</ele>
        <time>2019-09-15T09:02:55Z</time>
      </trkpt>
      <trkpt lat="44.98172" lon="0.54894">
        <ele>120.78</ele>
        <time>2019-09-15T09:03:12Z</time>
      </trkpt>
      <trkpt lat="44.98191" lon="0.5489">
        <ele>121.26</ele>
        <time>2019-09-15T09:03:33Z</time>
      </trkpt>
      <trkpt lat="44.98204" lon="0.54883">
        <ele>119.82</ele>
        <time>2019-09-15T09:03:48Z</time>
      </trkpt>
      <trkpt lat="44.98242" lon="0.54882">
        <ele>118.86</ele>
        <time>2019-09-15T09:04:13Z</time>
      </trkpt>
      <trkpt lat="44.98283" lon="0.54879">
        <ele>118.38</ele>
        <time>2019-09-15T09:04:37Z</time>
      </trkpt>
      <trkpt lat="44.98322" lon="0.54869">
        <ele>117.9</ele>
        <time>2019-09-15T09:05:02Z</time>
      </trkpt>
      <trkpt lat="44.98356" lon="0.54854">
        <ele>116.46</ele>
        <time>2019-09-15T09:05:26Z</time>
      </trkpt>
      <trkpt lat="44.98372" lon="0.5485">
        <ele>115.98</ele>
        <time>2019-09-15T09:05:44Z</time>
      </trkpt>
      <trkpt lat="44.98375" lon="0.54847">
        <ele>115.98</ele>
        <time>2019-09-15T09:06:09Z</time>
      </trkpt>
      <trkpt lat="44.98383" lon="0.54846">
        <ele>115.5</ele>
        <time>2019-09-15T09:06:16Z</time>
      </trkpt>
      <trkpt lat="44.98416" lon="0.54849">
        <ele>114.05</ele>
        <time>2019-09-15T09:06:38Z</time>
      </trkpt>
      <trkpt lat="44.98451" lon="0.54867">
        <ele>113.09</ele>
        <time>2019-09-15T09:07:00Z</time>
      </trkpt>
      <trkpt lat="44.9848" lon="0.5489">
        <ele>113.09</ele>
        <time>2019-09-15T09:07:20Z</time>
      </trkpt>
      <trkpt lat="44.98515" lon="0.54913">
        <ele>113.09</ele>
        <time>2019-09-15T09:07:45Z</time>
      </trkpt>
      <trkpt lat="44.98537" lon="0.54923">
        <ele>114.53</ele>
        <time>2019-09-15T09:08:01Z</time>
      </trkpt>
      <trkpt lat="44.98577" lon="0.5494">
        <ele>114.53</ele>
        <time>2019-09-15T09:08:28Z</time>
      </trkpt>
      <trkpt lat="44.98609" lon="0.54945">
        <ele>113.09</ele>
        <time>2019-09-15T09:08:50Z</time>
      </trkpt>
      <trkpt lat="44.98645" lon="0.54936">
        <ele>112.61</ele>
        <time>2019-09-15T09:09:16Z</time>
      </trkpt>
      <trkpt lat="44.98682" lon="0.54921">
        <ele>110.69</ele>
        <time>2019-09-15T09:09:40Z</time>
      </trkpt>
      <trkpt lat="44.98718" lon="0.54912">
        <ele>109.73</ele>
        <time>2019-09-15T09:10:04Z</time>
      </trkpt>
      <trkpt lat="44.98729" lon="0.54904">
        <ele>108.29</ele>
        <time>2019-09-15T09:10:23Z</time>
      </trkpt>
      <trkpt lat="44.98731" lon="0.54901">
        <ele>108.29</ele>
        <time>2019-09-15T09:10:54Z</time>
      </trkpt>
      <trkpt lat="44.98738" lon="0.5489">
        <ele>108.29</ele>
        <time>2019-09-15T09:11:09Z</time>
      </trkpt>
      <trkpt lat="44.98736" lon="0.54868">
        <ele>107.81</ele>
        <time>2019-09-15T09:11:28Z</time>
      </trkpt>
      <trkpt lat="44.98759" lon="0.54854">
        <ele>106.84</ele>
        <time>2019-09-15T09:11:45Z</time>
      </trkpt>
      <trkpt lat="44.98782" lon="0.54831">
        <ele>106.36</ele>
        <time>2019-09-15T09:12:06Z</time>
      </trkpt>
      <trkpt lat="44.98807" lon="0.54821">
        <ele>105.88</ele>
        <time>2019-09-15T09:12:28Z</time>
      </trkpt>
      <trkpt lat="44.98833" lon="0.54814">
        <ele>105.88</ele>
        <time>2019-09-15T09:12:51Z</time>
      </trkpt>
      <trkpt lat="44.98858" lon="0.54819">
        <ele>104.92</ele>
        <time>2019-09-15T09:13:10Z</time>
      </trkpt>
      <trkpt lat="44.98862" lon="0.54815">
        <ele>106.36</ele>
        <time>2019-09-15T09:13:14Z</time>
      </trkpt>
      <trkpt lat="44.98879" lon="0.54817">
        <ele>104.92</ele>
        <time>2019-09-15T09:13:32Z</time>
      </trkpt>
      <trkpt lat="44.98898" lon="0.54794">
        <ele>106.36</ele>
        <time>2019-09-15T09:13:55Z</time>
      </trkpt>
      <trkpt lat="44.98892" lon="0.54782">
        <ele>106.36</ele>
        <time>2019-09-15T09:14:03Z</time>
      </trkpt>
      <trkpt lat="44.98883" lon="0.54736">
        <ele>105.88</ele>
        <time>2019-09-15T09:14:28Z</time>
      </trkpt>
      <trkpt lat="44.98875" lon="0.5469">
        <ele>105.88</ele>
        <time>2019-09-15T09:14:51Z</time>
      </trkpt>
      <trkpt lat="44.98868" lon="0.54642">
        <ele>105.88</ele>
        <time>2019-09-15T09:15:15Z</time>
      </trkpt>
      <trkpt lat="44.98863" lon="0.54607">
        <ele>104.92</ele>
        <time>2019-09-15T09:15:32Z</time>
      </trkpt>
      <trkpt lat="44.98866" lon="0.54567">
        <ele>104.44</ele>
        <time>2019-09-15T09:15:55Z</time>
      </trkpt>
      <trkpt lat="44.98877" lon="0.54522">
        <ele>104.44</ele>
        <time>2019-09-15T09:16:18Z</time>
      </trkpt>
      <trkpt lat="44.98883" lon="0.54505">
        <ele>104.44</ele>
        <time>2019-09-15T09:16:27Z</time>
      </trkpt>
      <trkpt lat="44.98889" lon="0.54475">
        <ele>105.88</ele>
        <time>2019-09-15T09:16:42Z</time>
      </trkpt>
      <trkpt lat="44.98899" lon="0.5444">
        <ele>105.88</ele>
        <time>2019-09-15T09:17:01Z</time>
      </trkpt>
      <trkpt lat="44.98905" lon="0.54402">
        <ele>105.88</ele>
        <time>2019-09-15T09:17:23Z</time>
      </trkpt>
      <trkpt lat="44.98902" lon="0.54394">
        <ele>106.36</ele>
        <time>2019-09-15T09:17:30Z</time>
      </trkpt>
      <trkpt lat="44.98907" lon="0.5435">
        <ele>106.36</ele>
        <time>2019-09-15T09:17:53Z</time>
      </trkpt>
      <trkpt lat="44.98911" lon="0.54342">
        <ele>105.4</ele>
        <time>2019-09-15T09:17:57Z</time>
      </trkpt>
      <trkpt lat="44.9892" lon="0.54306">
        <ele>105.4</ele>
        <time>2019-09-15T09:18:15Z</time>
      </trkpt>
      <trkpt lat="44.98923" lon="0.54268">
        <ele>106.36</ele>
        <time>2019-09-15T09:18:35Z</time>
      </trkpt>
      <trkpt lat="44.9893" lon="0.54243">
        <ele>106.36</ele>
        <time>2019-09-15T09:18:46Z</time>
      </trkpt>
      <trkpt lat="44.98942" lon="0.54196">
        <ele>105.88</ele>
        <time>2019-09-15T09:19:10Z</time>
      </trkpt>
      <trkpt lat="44.98953" lon="0.54167">
        <ele>103.96</ele>
        <time>2019-09-15T09:19:29Z</time>
      </trkpt>
      <trkpt lat="44.98954" lon="0.54166">
        <ele>103.96</ele>
        <time>2019-09-15T09:19:30Z</time>
      </trkpt>
      <trkpt lat="44.98954" lon="0.5412">
        <ele>103.96</ele>
        <time>2019-09-15T09:19:50Z</time>
      </trkpt>
      <trkpt lat="44.98943" lon="0.54111">
        <ele>105.4</ele>
        <time>2019-09-15T09:19:59Z</time>
      </trkpt>
      <trkpt lat="44.98922" lon="0.54094">
        <ele>106.84</ele>
        <time>2019-09-15T09:20:16Z</time>
      </trkpt>
      <trkpt lat="44.98893" lon="0.54075">
        <ele>108.77</ele>
        <time>2019-09-15T09:20:42Z</time>
      </trkpt>
      <trkpt lat="44.98868" lon="0.54063">
        <ele>110.21</ele>
        <time>2019-09-15T09:21:01Z</time>
      </trkpt>
      <trkpt lat="44.98843" lon="0.54055">
        <ele>112.13</ele>
        <time>2019-09-15T09:21:20Z</time>
      </trkpt>
      <trkpt lat="44.98814" lon="0.54035">
        <ele>113.09</ele>
        <time>2019-09-15T09:21:41Z</time>
      </trkpt>
      <trkpt lat="44.98794" lon="0.54037">
        <ele>114.05</ele>
        <time>2019-09-15T09:21:56Z</time>
      </trkpt>
      <trkpt lat="44.98772" lon="0.5406">
        <ele>116.46</ele>
        <time>2019-09-15T09:22:16Z</time>
      </trkpt>
      <trkpt lat="44.98756" lon="0.54083">
        <ele>119.34</ele>
        <time>2019-09-15T09:22:35Z</time>
      </trkpt>
      <trkpt lat="44.98737" lon="0.54109">
        <ele>122.22</ele>
        <time>2019-09-15T09:22:57Z</time>
      </trkpt>
      <trkpt lat="44.98717" lon="0.5413">
        <ele>125.59</ele>
        <time>2019-09-15T09:23:17Z</time>
      </trkpt>
      <trkpt lat="44.98703" lon="0.54148">
        <ele>127.03</ele>
        <time>2019-09-15T09:23:38Z</time>
      </trkpt>
      <trkpt lat="44.987" lon="0.54156">
        <ele>127.51</ele>
        <time>2019-09-15T09:23:58Z</time>
      </trkpt>
      <trkpt lat="44.98703" lon="0.54155">
        <ele>127.51</ele>
        <time>2019-09-15T09:24:29Z</time>
      </trkpt>
      <trkpt lat="44.98684" lon="0.5417">
        <ele>130.4</ele>
        <time>2019-09-15T09:24:49Z</time>
      </trkpt>
      <trkpt lat="44.98666" lon="0.54197">
        <ele>134.24</ele>
        <time>2019-09-15T09:25:10Z</time>
      </trkpt>
      <trkpt lat="44.98648" lon="0.54224">
        <ele>136.64</ele>
        <time>2019-09-15T09:25:34Z</time>
      </trkpt>
      <trkpt lat="44.98638" lon="0.54252">
        <ele>140.01</ele>
        <time>2019-09-15T09:25:54Z</time>
      </trkpt>
      <trkpt lat="44.98634" lon="0.54275">
        <ele>142.41</ele>
        <time>2019-09-15T09:26:14Z</time>
      </trkpt>
      <trkpt lat="44.98629" lon="0.54297">
        <ele>144.82</ele>
        <time>2019-09-15T09:26:31Z</time>
      </trkpt>
      <trkpt lat="44.98618" lon="0.54309">
        <ele>145.78</ele>
        <time>2019-09-15T09:26:50Z</time>
      </trkpt>
      <trkpt lat="44.98621" lon="0.5431">
        <ele>145.78</ele>
        <time>2019-09-15T09:27:18Z</time>
      </trkpt>
      <trkpt lat="44.98623" lon="0.54305">
        <ele>145.78</ele>
        <time>2019-09-15T09:27:49Z</time>
      </trkpt>
      <trkpt lat="44.98623" lon="0.54306">
        <ele>145.78</ele>
        <time>2019-09-15T09:28:22Z</time>
      </trkpt>
      <trkpt lat="44.98616" lon="0.54305">
        <ele>145.78</ele>
        <time>2019-09-15T09:28:51Z</time>
      </trkpt>
      <trkpt lat="44.98621" lon="0.54315">
        <ele>145.78</ele>
        <time>2019-09-15T09:29:21Z</time>
      </trkpt>
      <trkpt lat="44.9862" lon="0.54307">
        <ele>146.26</ele>
        <time>2019-09-15T09:29:48Z</time>
      </trkpt>
      <trkpt lat="44.98618" lon="0.54309">
        <ele>146.26</ele>
        <time>2019-09-15T09:30:18Z</time>
      </trkpt>
      <trkpt lat="44.98595" lon="0.54332">
        <ele>146.26</ele>
        <time>2019-09-15T09:30:35Z</time>
      </trkpt>
      <trkpt lat="44.98575" lon="0.54357">
        <ele>145.3</ele>
        <time>2019-09-15T09:30:56Z</time>
      </trkpt>
      <trkpt lat="44.98556" lon="0.5432">
        <ele>143.37</ele>
        <time>2019-09-15T09:31:17Z</time>
      </trkpt>
      <trkpt lat="44.98535" lon="0.54279">
        <ele>142.89</ele>
        <time>2019-09-15T09:31:41Z</time>
      </trkpt>
      <trkpt lat="44.9851" lon="0.54238">
        <ele>143.37</ele>
        <time>2019-09-15T09:32:06Z</time>
      </trkpt>
      <trkpt lat="44.985" lon="0.54223">
        <ele>144.34</ele>
        <time>2019-09-15T09:32:17Z</time>
      </trkpt>
      <trkpt lat="44.9847" lon="0.54197">
        <ele>145.3</ele>
        <time>2019-09-15T09:32:41Z</time>
      </trkpt>
      <trkpt lat="44.98436" lon="0.54173">
        <ele>146.26</ele>
        <time>2019-09-15T09:33:06Z</time>
      </trkpt>
      <trkpt lat="44.98408" lon="0.54143">
        <ele>147.22</ele>
        <time>2019-09-15T09:33:29Z</time>
      </trkpt>
      <trkpt lat="44.98388" lon="0.54095">
        <ele>148.66</ele>
        <time>2019-09-15T09:33:58Z</time>
      </trkpt>
      <trkpt lat="44.98374" lon="0.54052">
        <ele>151.54</ele>
        <time>2019-09-15T09:34:22Z</time>
      </trkpt>
      <trkpt lat="44.98361" lon="0.54011">
        <ele>152.99</ele>
        <time>2019-09-15T09:34:45Z</time>
      </trkpt>
      <trkpt lat="44.98351" lon="0.53958">
        <ele>155.3</ele>
      </trkpt>
      <trkpt lat="44.98348" lon="0.53945">
        <ele>155.6</ele>
      </trkpt>
    </trkseg>
  </trk>
</gpx>